sensor_id;sensor_type;location;lat;lon;timestamp;P1;durP1;ratioP1;P2;durP2;ratioP2
44762;SDS011;30483;49.576;6.036;2023-11-21T04:04:40;3.33;;;1.60;;
44762;SDS011;30483;49.576;6.036;2023-11-21T04:07:06;2.38;;;1.40;;
44762;SDS011;30483;49.576;6.036;2023-11-21T04:09:32;2.05;;;1.80;;
44762;SDS011;30483;49.576;6.036;2023-11-21T04:11:58;5.72;;;1.92;;
44762;SDS011;30483;49.576;6.036;2023-11-21T04:14:24;1.95;;;1.75;;
44762;SDS011;30483;49.576;6.036;2023-11-21T04:16:50;2.30;;;1.70;;
44762;SDS011;30483;49.576;6.036;2023-11-21T04:19:16;3.05;;;1.70;;
44762;SDS011;30483;49.576;6.036;2023-11-21T04:21:45;2.83;;;1.60;;
44762;SDS011;30483;49.576;6.036;2023-11-21T04:24:11;1.70;;;1.50;;
44762;SDS011;30483;49.576;6.036;2023-11-21T04:26:37;1.80;;;1.58;;
44762;SDS011;30483;49.576;6.036;2023-11-21T04:29:03;1.67;;;1.58;;
44762;SDS011;30483;49.576;6.036;2023-11-21T04:31:29;1.98;;;1.50;;
44762;SDS011;30483;49.576;6.036;2023-11-21T04:33:56;2.42;;;1.48;;
44762;SDS011;30483;49.576;6.036;2023-11-21T04:36:22;1.50;;;1.40;;
44762;SDS011;30483;49.576;6.036;2023-11-21T04:38:48;1.60;;;1.40;;
44762;SDS011;30483;49.576;6.036;2023-11-21T04:41:13;2.03;;;1.33;;
44762;SDS011;30483;49.576;6.036;2023-11-21T04:43:39;1.63;;;1.27;;
44762;SDS011;30483;49.576;6.036;2023-11-21T04:46:07;1.67;;;1.20;;
44762;SDS011;30483;49.576;6.036;2023-11-21T04:48:33;1.30;;;1.10;;
44762;SDS011;30483;49.576;6.036;2023-11-21T04:50:59;2.47;;;1.10;;
44762;SDS011;30483;49.576;6.036;2023-11-21T04:53:25;1.65;;;1.23;;
44762;SDS011;30483;49.576;6.036;2023-11-21T04:55:51;1.15;;;1.05;;
44762;SDS011;30483;49.576;6.036;2023-11-21T04:58:17;3.53;;;1.23;;
44762;SDS011;30483;49.576;6.036;2023-11-21T05:00:45;1.23;;;0.88;;
44762;SDS011;30483;49.576;6.036;2023-11-21T05:03:11;1.63;;;1.02;;
44762;SDS011;30483;49.576;6.036;2023-11-21T05:05:37;1.25;;;1.00;;
44762;SDS011;30483;49.576;6.036;2023-11-21T05:08:03;3.83;;;1.40;;
44762;SDS011;30483;49.576;6.036;2023-11-21T05:10:30;1.38;;;0.95;;
44762;SDS011;30483;49.576;6.036;2023-11-21T05:12:56;1.40;;;1.10;;
44762;SDS011;30483;49.576;6.036;2023-11-21T05:15:23;1.67;;;0.90;;
44762;SDS011;30483;49.576;6.036;2023-11-21T05:17:49;3.28;;;1.10;;
44762;SDS011;30483;49.576;6.036;2023-11-21T05:20:17;3.92;;;1.17;;
44762;SDS011;30483;49.576;6.036;2023-11-21T05:22:46;1.27;;;0.90;;
44762;SDS011;30483;49.576;6.036;2023-11-21T05:25:13;1.88;;;1.15;;
44762;SDS011;30483;49.576;6.036;2023-11-21T05:27:39;0.93;;;0.73;;
44762;SDS011;30483;49.576;6.036;2023-11-21T05:30:05;1.58;;;1.00;;
44762;SDS011;30483;49.576;6.036;2023-11-21T05:32:34;1.35;;;1.02;;
44762;SDS011;30483;49.576;6.036;2023-11-21T05:35:00;2.10;;;1.15;;
44762;SDS011;30483;49.576;6.036;2023-11-21T05:37:26;1.80;;;1.20;;
44762;SDS011;30483;49.576;6.036;2023-11-21T05:39:55;2.70;;;1.17;;
44762;SDS011;30483;49.576;6.036;2023-11-21T05:42:21;1.45;;;0.90;;
44762;SDS011;30483;49.576;6.036;2023-11-21T05:44:48;1.88;;;1.30;;
44762;SDS011;30483;49.576;6.036;2023-11-21T05:47:14;3.03;;;1.10;;
44762;SDS011;30483;49.576;6.036;2023-11-21T05:49:40;1.75;;;1.10;;
44762;SDS011;30483;49.576;6.036;2023-11-21T05:52:07;1.10;;;1.00;;
44762;SDS011;30483;49.576;6.036;2023-11-21T05:54:33;1.95;;;1.08;;
44762;SDS011;30483;49.576;6.036;2023-11-21T05:56:59;1.67;;;0.95;;
44762;SDS011;30483;49.576;6.036;2023-11-21T05:59:25;2.40;;;1.00;;
44762;SDS011;30483;49.576;6.036;2023-11-21T06:01:51;2.40;;;1.50;;
44762;SDS011;30483;49.576;6.036;2023-11-21T06:04:18;3.00;;;2.10;;
44762;SDS011;30483;49.576;6.036;2023-11-21T06:06:48;1.92;;;1.58;;
44762;SDS011;30483;49.576;6.036;2023-11-21T06:09:14;2.20;;;1.30;;
44762;SDS011;30483;49.576;6.036;2023-11-21T06:11:40;1.42;;;1.33;;
44762;SDS011;30483;49.576;6.036;2023-11-21T06:14:06;1.88;;;1.33;;
44762;SDS011;30483;49.576;6.036;2023-11-21T06:16:34;1.20;;;1.10;;
44762;SDS011;30483;49.576;6.036;2023-11-21T06:19:00;1.92;;;1.20;;
44762;SDS011;30483;49.576;6.036;2023-11-21T06:21:26;1.75;;;1.38;;
44762;SDS011;30483;49.576;6.036;2023-11-21T06:23:52;1.30;;;1.20;;
44762;SDS011;30483;49.576;6.036;2023-11-21T06:26:18;4.00;;;1.38;;
44762;SDS011;30483;49.576;6.036;2023-11-21T06:28:45;1.27;;;1.17;;
44762;SDS011;30483;49.576;6.036;2023-11-21T06:31:11;2.92;;;1.30;;
44762;SDS011;30483;49.576;6.036;2023-11-21T06:33:37;1.48;;;1.10;;
44762;SDS011;30483;49.576;6.036;2023-11-21T06:36:03;4.80;;;1.10;;
44762;SDS011;30483;49.576;6.036;2023-11-21T06:38:29;1.77;;;1.30;;
44762;SDS011;30483;49.576;6.036;2023-11-21T06:40:57;2.22;;;1.33;;
44762;SDS011;30483;49.576;6.036;2023-11-21T06:43:23;1.38;;;1.10;;
44762;SDS011;30483;49.576;6.036;2023-11-21T06:45:49;1.70;;;1.23;;
44762;SDS011;30483;49.576;6.036;2023-11-21T06:48:15;2.35;;;1.27;;
44762;SDS011;30483;49.576;6.036;2023-11-21T06:50:41;2.88;;;1.38;;
44762;SDS011;30483;49.576;6.036;2023-11-21T06:53:07;2.65;;;1.35;;
44762;SDS011;30483;49.576;6.036;2023-11-21T06:55:34;1.95;;;1.13;;
44762;SDS011;30483;49.576;6.036;2023-11-21T06:58:00;1.67;;;1.45;;
44762;SDS011;30483;49.576;6.036;2023-11-21T07:00:26;2.17;;;1.25;;
44762;SDS011;30483;49.576;6.036;2023-11-21T07:02:53;2.33;;;1.52;;
44762;SDS011;30483;49.576;6.036;2023-11-21T07:05:20;1.63;;;1.40;;
44762;SDS011;30483;49.576;6.036;2023-11-21T07:07:47;1.92;;;1.25;;
44762;SDS011;30483;49.576;6.036;2023-11-21T07:10:13;2.00;;;1.23;;
44762;SDS011;30483;49.576;6.036;2023-11-21T07:12:39;1.80;;;1.13;;
44762;SDS011;30483;49.576;6.036;2023-11-21T07:15:05;1.77;;;1.30;;
44762;SDS011;30483;49.576;6.036;2023-11-21T07:17:34;2.17;;;1.50;;
44762;SDS011;30483;49.576;6.036;2023-11-21T07:20:00;1.92;;;1.40;;
44762;SDS011;30483;49.576;6.036;2023-11-21T07:22:26;3.28;;;1.60;;
44762;SDS011;30483;49.576;6.036;2023-11-21T07:24:52;2.13;;;1.45;;
44762;SDS011;30483;49.576;6.036;2023-11-21T07:27:18;2.92;;;1.35;;
44762;SDS011;30483;49.576;6.036;2023-11-21T07:29:44;3.38;;;1.67;;
44762;SDS011;30483;49.576;6.036;2023-11-21T07:32:10;4.68;;;2.33;;
44762;SDS011;30483;49.576;6.036;2023-11-21T07:34:37;2.83;;;1.73;;
44762;SDS011;30483;49.576;6.036;2023-11-21T07:37:03;3.20;;;1.77;;
44762;SDS011;30483;49.576;6.036;2023-11-21T07:39:29;1.98;;;1.60;;
44762;SDS011;30483;49.576;6.036;2023-11-21T07:41:55;2.55;;;1.80;;
44762;SDS011;30483;49.576;6.036;2023-11-21T07:44:22;4.38;;;1.77;;
44762;SDS011;30483;49.576;6.036;2023-11-21T07:46:48;2.70;;;1.90;;
44762;SDS011;30483;49.576;6.036;2023-11-21T07:49:14;2.95;;;1.80;;
44762;SDS011;30483;49.576;6.036;2023-11-21T07:51:45;2.67;;;1.63;;
44762;SDS011;30483;49.576;6.036;2023-11-21T07:54:11;2.92;;;1.88;;
44762;SDS011;30483;49.576;6.036;2023-11-21T07:56:37;3.42;;;1.77;;
44762;SDS011;30483;49.576;6.036;2023-11-21T07:59:03;1.75;;;1.52;;
44762;SDS011;30483;49.576;6.036;2023-11-21T08:01:29;2.67;;;1.75;;
44762;SDS011;30483;49.576;6.036;2023-11-21T08:03:56;1.85;;;1.65;;
44762;SDS011;30483;49.576;6.036;2023-11-21T08:06:26;3.88;;;1.70;;
44762;SDS011;30483;49.576;6.036;2023-11-21T08:08:53;5.68;;;1.90;;
44762;SDS011;30483;49.576;6.036;2023-11-21T08:11:20;4.72;;;1.70;;
44762;SDS011;30483;49.576;6.036;2023-11-21T08:13:46;3.70;;;1.80;;
44762;SDS011;30483;49.576;6.036;2023-11-21T08:16:12;2.90;;;1.83;;
44762;SDS011;30483;49.576;6.036;2023-11-21T08:18:38;3.20;;;2.13;;
44762;SDS011;30483;49.576;6.036;2023-11-21T08:21:06;6.05;;;2.30;;
44762;SDS011;30483;49.576;6.036;2023-11-21T08:23:33;2.53;;;2.13;;
44762;SDS011;30483;49.576;6.036;2023-11-21T08:25:59;4.30;;;2.20;;
44762;SDS011;30483;49.576;6.036;2023-11-21T08:28:26;3.95;;;2.40;;
44762;SDS011;30483;49.576;6.036;2023-11-21T08:30:52;4.95;;;2.03;;
44762;SDS011;30483;49.576;6.036;2023-11-21T08:33:21;4.05;;;2.17;;
44762;SDS011;30483;49.576;6.036;2023-11-21T08:35:47;3.33;;;2.33;;
44762;SDS011;30483;49.576;6.036;2023-11-21T08:38:13;2.22;;;1.80;;
44762;SDS011;30483;49.576;6.036;2023-11-21T08:40:39;4.53;;;2.40;;
44762;SDS011;30483;49.576;6.036;2023-11-21T08:43:05;2.90;;;1.90;;
44762;SDS011;30483;49.576;6.036;2023-11-21T08:45:32;3.05;;;2.10;;
44762;SDS011;30483;49.576;6.036;2023-11-21T08:47:59;2.75;;;1.88;;
44762;SDS011;30483;49.576;6.036;2023-11-21T08:50:25;3.30;;;1.77;;
44762;SDS011;30483;49.576;6.036;2023-11-21T08:52:51;2.60;;;1.70;;
44762;SDS011;30483;49.576;6.036;2023-11-21T08:55:17;3.95;;;2.30;;
44762;SDS011;30483;49.576;6.036;2023-11-21T08:57:44;5.00;;;2.17;;
44762;SDS011;30483;49.576;6.036;2023-11-21T09:00:12;4.28;;;1.95;;
44762;SDS011;30483;49.576;6.036;2023-11-21T09:02:42;3.70;;;2.20;;
44762;SDS011;30483;49.576;6.036;2023-11-21T09:05:08;2.10;;;1.90;;
44762;SDS011;30483;49.576;6.036;2023-11-21T09:07:34;3.72;;;2.13;;
44762;SDS011;30483;49.576;6.036;2023-11-21T09:10:01;3.85;;;2.42;;
44762;SDS011;30483;49.576;6.036;2023-11-21T09:12:27;3.78;;;1.90;;
44762;SDS011;30483;49.576;6.036;2023-11-21T09:14:53;3.50;;;2.10;;
44762;SDS011;30483;49.576;6.036;2023-11-21T09:17:19;3.38;;;2.13;;
44762;SDS011;30483;49.576;6.036;2023-11-21T09:19:45;5.00;;;2.50;;
44762;SDS011;30483;49.576;6.036;2023-11-21T09:22:15;5.75;;;2.65;;
44762;SDS011;30483;49.576;6.036;2023-11-21T09:24:41;6.53;;;2.50;;
44762;SDS011;30483;49.576;6.036;2023-11-21T09:27:07;4.10;;;1.80;;
44762;SDS011;30483;49.576;6.036;2023-11-21T09:29:34;3.55;;;1.92;;
44762;SDS011;30483;49.576;6.036;2023-11-21T09:32:00;4.15;;;2.00;;
44762;SDS011;30483;49.576;6.036;2023-11-21T09:34:26;2.80;;;1.80;;
44762;SDS011;30483;49.576;6.036;2023-11-21T09:36:52;3.05;;;1.90;;
44762;SDS011;30483;49.576;6.036;2023-11-21T09:39:18;2.35;;;1.88;;
44762;SDS011;30483;49.576;6.036;2023-11-21T09:41:51;3.58;;;1.75;;
44762;SDS011;30483;49.576;6.036;2023-11-21T09:44:22;2.72;;;1.88;;
44762;SDS011;30483;49.576;6.036;2023-11-21T09:46:53;4.07;;;1.70;;
44762;SDS011;30483;49.576;6.036;2023-11-21T09:49:21;3.35;;;1.95;;
44762;SDS011;30483;49.576;6.036;2023-11-21T09:51:53;2.53;;;2.05;;
44762;SDS011;30483;49.576;6.036;2023-11-21T09:54:22;4.22;;;2.78;;
44762;SDS011;30483;49.576;6.036;2023-11-21T09:56:48;4.40;;;2.33;;
44762;SDS011;30483;49.576;6.036;2023-11-21T09:59:15;4.20;;;2.67;;
44762;SDS011;30483;49.576;6.036;2023-11-21T10:01:41;3.75;;;2.13;;
44762;SDS011;30483;49.576;6.036;2023-11-21T10:04:11;4.55;;;2.67;;
44762;SDS011;30483;49.576;6.036;2023-11-21T10:06:38;3.63;;;2.40;;
44762;SDS011;30483;49.576;6.036;2023-11-21T10:09:06;5.57;;;2.70;;
44762;SDS011;30483;49.576;6.036;2023-11-21T10:14:03;4.68;;;2.67;;
44762;SDS011;30483;49.576;6.036;2023-11-21T10:16:29;2.97;;;2.15;;
44762;SDS011;30483;49.576;6.036;2023-11-21T10:18:57;4.22;;;2.75;;
44762;SDS011;30483;49.576;6.036;2023-11-21T10:21:23;4.25;;;2.45;;
44762;SDS011;30483;49.576;6.036;2023-11-21T10:23:50;3.15;;;2.28;;
44762;SDS011;30483;49.576;6.036;2023-11-21T10:26:18;4.85;;;2.63;;
44762;SDS011;30483;49.576;6.036;2023-11-21T10:28:58;4.05;;;2.20;;
44762;SDS011;30483;49.576;6.036;2023-11-21T10:31:27;5.95;;;2.53;;
44762;SDS011;30483;49.576;6.036;2023-11-21T10:33:53;2.97;;;2.25;;
44762;SDS011;30483;49.576;6.036;2023-11-21T10:36:26;4.22;;;2.20;;
44762;SDS011;30483;49.576;6.036;2023-11-21T10:38:55;3.72;;;2.20;;
44762;SDS011;30483;49.576;6.036;2023-11-21T10:41:22;4.25;;;2.05;;
44762;SDS011;30483;49.576;6.036;2023-11-21T10:43:48;4.05;;;2.03;;
44762;SDS011;30483;49.576;6.036;2023-11-21T10:46:14;3.33;;;2.10;;
44762;SDS011;30483;49.576;6.036;2023-11-21T10:48:41;4.28;;;2.75;;
44762;SDS011;30483;49.576;6.036;2023-11-21T10:51:07;4.68;;;2.10;;
44762;SDS011;30483;49.576;6.036;2023-11-21T10:53:37;4.03;;;1.80;;
44762;SDS011;30483;49.576;6.036;2023-11-21T10:56:05;3.95;;;1.80;;
44762;SDS011;30483;49.576;6.036;2023-11-21T10:58:32;2.72;;;2.00;;
44762;SDS011;30483;49.576;6.036;2023-11-21T11:00:58;2.83;;;1.70;;
44762;SDS011;30483;49.576;6.036;2023-11-21T11:03:25;3.47;;;2.05;;
44762;SDS011;30483;49.576;6.036;2023-11-21T11:05:51;3.70;;;1.73;;
44762;SDS011;30483;49.576;6.036;2023-11-21T11:08:20;2.95;;;2.00;;
44762;SDS011;30483;49.576;6.036;2023-11-21T11:10:51;3.97;;;2.20;;
44762;SDS011;30483;49.576;6.036;2023-11-21T11:13:17;3.30;;;2.10;;
44762;SDS011;30483;49.576;6.036;2023-11-21T11:15:46;4.22;;;2.13;;
44762;SDS011;30483;49.576;6.036;2023-11-21T11:18:12;2.83;;;1.63;;
44762;SDS011;30483;49.576;6.036;2023-11-21T11:20:39;3.65;;;2.00;;
44762;SDS011;30483;49.576;6.036;2023-11-21T11:23:13;4.05;;;1.70;;
44762;SDS011;30483;49.576;6.036;2023-11-21T11:28:44;3.95;;;2.45;;
44762;SDS011;30483;49.576;6.036;2023-11-21T11:36:24;4.82;;;2.00;;
44762;SDS011;30483;49.576;6.036;2023-11-21T11:38:51;4.38;;;2.05;;
44762;SDS011;30483;49.576;6.036;2023-11-21T11:41:29;3.60;;;2.00;;
44762;SDS011;30483;49.576;6.036;2023-11-21T11:43:57;4.53;;;1.80;;
44762;SDS011;30483;49.576;6.036;2023-11-21T11:46:45;5.88;;;2.47;;
44762;SDS011;30483;49.576;6.036;2023-11-21T11:49:21;7.05;;;3.42;;
44762;SDS011;30483;49.576;6.036;2023-11-21T11:52:10;5.28;;;2.85;;
44762;SDS011;30483;49.576;6.036;2023-11-21T11:54:37;6.20;;;2.80;;
44762;SDS011;30483;49.576;6.036;2023-11-21T11:57:03;5.32;;;2.65;;
44762;SDS011;30483;49.576;6.036;2023-11-21T11:59:29;5.70;;;2.50;;
44762;SDS011;30483;49.576;6.036;2023-11-21T12:01:55;4.15;;;2.30;;
44762;SDS011;30483;49.576;6.036;2023-11-21T12:04:25;7.90;;;2.40;;
44762;SDS011;30483;49.576;6.036;2023-11-21T12:07:02;4.60;;;2.15;;
44762;SDS011;30483;49.576;6.036;2023-11-21T12:09:28;4.70;;;2.08;;
44762;SDS011;30483;49.576;6.036;2023-11-21T12:11:56;4.72;;;2.30;;
44762;SDS011;30483;49.576;6.036;2023-11-21T12:14:22;4.43;;;2.20;;
44762;SDS011;30483;49.576;6.036;2023-11-21T12:16:48;3.47;;;2.20;;
44762;SDS011;30483;49.576;6.036;2023-11-21T12:19:15;3.67;;;2.30;;
44762;SDS011;30483;49.576;6.036;2023-11-21T12:21:41;3.55;;;2.08;;
44762;SDS011;30483;49.576;6.036;2023-11-21T12:24:07;4.53;;;2.08;;
44762;SDS011;30483;49.576;6.036;2023-11-21T12:26:34;3.20;;;2.00;;
44762;SDS011;30483;49.576;6.036;2023-11-21T12:29:01;4.05;;;2.00;;
44762;SDS011;30483;49.576;6.036;2023-11-21T12:31:29;6.15;;;2.35;;
44762;SDS011;30483;49.576;6.036;2023-11-21T12:33:55;4.90;;;2.40;;
44762;SDS011;30483;49.576;6.036;2023-11-21T12:36:24;5.45;;;2.47;;
44762;SDS011;30483;49.576;6.036;2023-11-21T12:38:50;4.97;;;2.70;;
44762;SDS011;30483;49.576;6.036;2023-11-21T12:41:16;4.68;;;2.17;;
44762;SDS011;30483;49.576;6.036;2023-11-21T12:43:42;5.30;;;2.40;;
44762;SDS011;30483;49.576;6.036;2023-11-21T12:46:09;4.57;;;2.15;;
44762;SDS011;30483;49.576;6.036;2023-11-21T12:48:39;5.20;;;2.35;;
44762;SDS011;30483;49.576;6.036;2023-11-21T12:51:07;6.00;;;2.20;;
44762;SDS011;30483;49.576;6.036;2023-11-21T12:53:34;3.85;;;2.00;;
44762;SDS011;30483;49.576;6.036;2023-11-21T12:56:13;6.75;;;2.05;;
44762;SDS011;30483;49.576;6.036;2023-11-21T12:58:44;6.15;;;2.35;;
44762;SDS011;30483;49.576;6.036;2023-11-21T13:01:12;3.72;;;2.17;;
44762;SDS011;30483;49.576;6.036;2023-11-21T13:03:42;7.13;;;2.20;;
44762;SDS011;30483;49.576;6.036;2023-11-21T13:06:10;4.05;;;1.98;;
44762;SDS011;30483;49.576;6.036;2023-11-21T13:08:37;4.43;;;1.98;;
44762;SDS011;30483;49.576;6.036;2023-11-21T13:11:04;4.32;;;2.10;;
44762;SDS011;30483;49.576;6.036;2023-11-21T13:13:31;4.13;;;1.90;;
44762;SDS011;30483;49.576;6.036;2023-11-21T13:15:59;4.45;;;2.10;;
44762;SDS011;30483;49.576;6.036;2023-11-21T13:18:26;5.80;;;1.90;;
44762;SDS011;30483;49.576;6.036;2023-11-21T13:20:56;5.85;;;1.80;;
44762;SDS011;30483;49.576;6.036;2023-11-21T13:23:23;6.40;;;2.38;;
44762;SDS011;30483;49.576;6.036;2023-11-21T13:25:49;3.30;;;1.90;;
44762;SDS011;30483;49.576;6.036;2023-11-21T13:28:15;5.15;;;2.00;;
44762;SDS011;30483;49.576;6.036;2023-11-21T13:30:43;3.17;;;1.90;;
44762;SDS011;30483;49.576;6.036;2023-11-21T13:33:09;5.10;;;2.00;;
44762;SDS011;30483;49.576;6.036;2023-11-21T13:35:42;5.70;;;2.00;;
44762;SDS011;30483;49.576;6.036;2023-11-21T13:38:13;5.47;;;2.08;;
44762;SDS011;30483;49.576;6.036;2023-11-21T13:40:40;3.95;;;1.90;;
44762;SDS011;30483;49.576;6.036;2023-11-21T13:43:12;5.47;;;2.10;;
44762;SDS011;30483;49.576;6.036;2023-11-21T13:45:41;3.03;;;2.00;;
44762;SDS011;30483;49.576;6.036;2023-11-21T13:48:08;5.28;;;2.17;;
44762;SDS011;30483;49.576;6.036;2023-11-21T13:50:39;4.15;;;2.25;;
44762;SDS011;30483;49.576;6.036;2023-11-21T13:53:13;6.25;;;2.17;;
44762;SDS011;30483;49.576;6.036;2023-11-21T13:55:50;5.85;;;2.10;;
44762;SDS011;30483;49.576;6.036;2023-11-21T13:58:19;4.38;;;2.00;;
44762;SDS011;30483;49.576;6.036;2023-11-21T14:00:49;3.30;;;2.00;;
44762;SDS011;30483;49.576;6.036;2023-11-21T14:03:22;4.40;;;2.17;;
44762;SDS011;30483;49.576;6.036;2023-11-21T14:05:50;3.15;;;1.80;;
44762;SDS011;30483;49.576;6.036;2023-11-21T14:08:20;4.68;;;1.90;;
44762;SDS011;30483;49.576;6.036;2023-11-21T14:10:49;4.20;;;1.85;;
44762;SDS011;30483;49.576;6.036;2023-11-21T14:13:18;5.32;;;2.22;;
44762;SDS011;30483;49.576;6.036;2023-11-21T14:18:16;4.93;;;1.88;;
44762;SDS011;30483;49.576;6.036;2023-11-21T14:20:45;5.90;;;2.00;;
44762;SDS011;30483;49.576;6.036;2023-11-21T14:25:39;3.00;;;1.85;;
44762;SDS011;30483;49.576;6.036;2023-11-21T14:28:07;4.00;;;1.80;;
44762;SDS011;30483;49.576;6.036;2023-11-21T14:30:33;4.03;;;1.75;;
44762;SDS011;30483;49.576;6.036;2023-11-21T14:33:01;4.75;;;1.90;;
44762;SDS011;30483;49.576;6.036;2023-11-21T14:35:27;4.20;;;1.80;;
44762;SDS011;30483;49.576;6.036;2023-11-21T14:37:57;4.70;;;1.73;;
44762;SDS011;30483;49.576;6.036;2023-11-21T14:40:24;3.35;;;1.98;;
44762;SDS011;30483;49.576;6.036;2023-11-21T14:42:50;3.33;;;1.85;;
44762;SDS011;30483;49.576;6.036;2023-11-21T14:45:22;2.40;;;1.80;;
44762;SDS011;30483;49.576;6.036;2023-11-21T14:47:51;3.67;;;1.80;;
44762;SDS011;30483;49.576;6.036;2023-11-21T14:50:35;3.55;;;2.00;;
44762;SDS011;30483;49.576;6.036;2023-11-21T14:53:14;5.00;;;1.90;;
44762;SDS011;30483;49.576;6.036;2023-11-21T14:55:40;3.90;;;1.80;;
44762;SDS011;30483;49.576;6.036;2023-11-21T14:58:21;3.53;;;1.90;;
44762;SDS011;30483;49.576;6.036;2023-11-21T15:00:57;4.30;;;2.00;;
44762;SDS011;30483;49.576;6.036;2023-11-21T15:03:27;3.03;;;1.63;;
44762;SDS011;30483;49.576;6.036;2023-11-21T15:05:56;2.53;;;1.77;;
44762;SDS011;30483;49.576;6.036;2023-11-21T15:08:22;4.15;;;1.77;;
44762;SDS011;30483;49.576;6.036;2023-11-21T15:10:55;2.63;;;1.67;;
44762;SDS011;30483;49.576;6.036;2023-11-21T15:13:21;4.15;;;1.80;;
44762;SDS011;30483;49.576;6.036;2023-11-21T15:15:49;4.90;;;1.77;;
44762;SDS011;30483;49.576;6.036;2023-11-21T15:18:15;2.40;;;1.90;;
44762;SDS011;30483;49.576;6.036;2023-11-21T15:20:42;2.28;;;1.88;;
44762;SDS011;30483;49.576;6.036;2023-11-21T15:23:09;4.13;;;2.10;;
44762;SDS011;30483;49.576;6.036;2023-11-21T15:25:37;4.78;;;2.28;;
44762;SDS011;30483;49.576;6.036;2023-11-21T15:28:03;3.15;;;2.03;;
44762;SDS011;30483;49.576;6.036;2023-11-21T15:30:30;3.75;;;2.00;;
44762;SDS011;30483;49.576;6.036;2023-11-21T15:32:59;3.83;;;2.30;;
44762;SDS011;30483;49.576;6.036;2023-11-21T15:35:25;2.70;;;1.75;;
44762;SDS011;30483;49.576;6.036;2023-11-21T15:37:53;3.83;;;1.90;;
44762;SDS011;30483;49.576;6.036;2023-11-21T15:40:22;4.75;;;2.10;;
44762;SDS011;30483;49.576;6.036;2023-11-21T15:42:48;4.93;;;2.17;;
44762;SDS011;30483;49.576;6.036;2023-11-21T15:45:14;3.72;;;1.95;;
44762;SDS011;30483;49.576;6.036;2023-11-21T15:47:43;2.78;;;2.05;;
44762;SDS011;30483;49.576;6.036;2023-11-21T15:50:09;3.35;;;2.00;;
44762;SDS011;30483;49.576;6.036;2023-11-21T15:52:35;3.20;;;1.98;;
44762;SDS011;30483;49.576;6.036;2023-11-21T15:55:01;5.45;;;2.30;;
44762;SDS011;30483;49.576;6.036;2023-11-21T15:57:28;3.97;;;2.40;;
44762;SDS011;30483;49.576;6.036;2023-11-21T15:59:54;6.75;;;2.13;;
44762;SDS011;30483;49.576;6.036;2023-11-21T16:02:20;5.00;;;2.08;;
44762;SDS011;30483;49.576;6.036;2023-11-21T16:04:46;3.60;;;2.15;;
44762;SDS011;30483;49.576;6.036;2023-11-21T16:07:12;3.97;;;2.10;;
44762;SDS011;30483;49.576;6.036;2023-11-21T16:09:38;4.35;;;2.20;;
44762;SDS011;30483;49.576;6.036;2023-11-21T16:12:07;4.10;;;2.20;;
44762;SDS011;30483;49.576;6.036;2023-11-21T16:14:34;4.65;;;2.30;;
44762;SDS011;30483;49.576;6.036;2023-11-21T16:17:01;5.18;;;2.30;;
44762;SDS011;30483;49.576;6.036;2023-11-21T16:19:27;5.38;;;2.28;;
44762;SDS011;30483;49.576;6.036;2023-11-21T16:21:53;3.95;;;2.38;;
44762;SDS011;30483;49.576;6.036;2023-11-21T16:24:19;6.45;;;2.58;;
44762;SDS011;30483;49.576;6.036;2023-11-21T16:26:46;4.78;;;2.60;;
44762;SDS011;30483;49.576;6.036;2023-11-21T16:29:12;3.78;;;2.30;;
44762;SDS011;30483;49.576;6.036;2023-11-21T16:31:38;5.75;;;2.13;;
44762;SDS011;30483;49.576;6.036;2023-11-21T16:34:11;6.22;;;2.67;;
44762;SDS011;30483;49.576;6.036;2023-11-21T16:36:38;4.20;;;2.13;;
44762;SDS011;30483;49.576;6.036;2023-11-21T16:39:04;3.40;;;2.20;;
44762;SDS011;30483;49.576;6.036;2023-11-21T16:41:30;5.97;;;2.40;;
44762;SDS011;30483;49.576;6.036;2023-11-21T16:43:56;4.57;;;2.50;;
44762;SDS011;30483;49.576;6.036;2023-11-21T16:46:22;9.40;;;2.92;;
44762;SDS011;30483;49.576;6.036;2023-11-21T16:48:48;8.68;;;3.47;;
44762;SDS011;30483;49.576;6.036;2023-11-21T16:51:17;5.72;;;3.10;;
44762;SDS011;30483;49.576;6.036;2023-11-21T16:53:44;7.75;;;3.70;;
44762;SDS011;30483;49.576;6.036;2023-11-21T16:56:10;6.22;;;3.33;;
44762;SDS011;30483;49.576;6.036;2023-11-21T16:58:36;8.80;;;3.63;;
44762;SDS011;30483;49.576;6.036;2023-11-21T17:01:02;6.63;;;3.40;;
44762;SDS011;30483;49.576;6.036;2023-11-21T17:03:28;7.63;;;3.53;;
44762;SDS011;30483;49.576;6.036;2023-11-21T17:05:56;7.70;;;3.42;;
44762;SDS011;30483;49.576;6.036;2023-11-21T17:08:22;5.80;;;3.15;;
44762;SDS011;30483;49.576;6.036;2023-11-21T17:10:48;9.23;;;3.42;;
44762;SDS011;30483;49.576;6.036;2023-11-21T17:13:14;7.57;;;3.65;;
44762;SDS011;30483;49.576;6.036;2023-11-21T17:15:44;7.70;;;3.70;;
44762;SDS011;30483;49.576;6.036;2023-11-21T17:18:11;7.53;;;3.80;;
44762;SDS011;30483;49.576;6.036;2023-11-21T17:20:37;7.55;;;4.15;;
44762;SDS011;30483;49.576;6.036;2023-11-21T17:23:03;7.65;;;4.00;;
44762;SDS011;30483;49.576;6.036;2023-11-21T17:25:31;8.88;;;3.55;;
44762;SDS011;30483;49.576;6.036;2023-11-21T17:27:57;8.45;;;3.83;;
44762;SDS011;30483;49.576;6.036;2023-11-21T17:30:23;5.50;;;3.10;;
44762;SDS011;30483;49.576;6.036;2023-11-21T17:32:49;6.53;;;3.08;;
44762;SDS011;30483;49.576;6.036;2023-11-21T17:35:15;8.32;;;3.40;;
44762;SDS011;30483;49.576;6.036;2023-11-21T17:37:41;8.18;;;3.13;;
44762;SDS011;30483;49.576;6.036;2023-11-21T17:40:07;8.48;;;2.75;;
44762;SDS011;30483;49.576;6.036;2023-11-21T17:42:34;5.43;;;2.80;;
44762;SDS011;30483;49.576;6.036;2023-11-21T17:45:00;6.35;;;2.70;;
44762;SDS011;30483;49.576;6.036;2023-11-21T17:47:26;6.50;;;2.80;;
44762;SDS011;30483;49.576;6.036;2023-11-21T17:49:52;6.38;;;2.60;;
44762;SDS011;30483;49.576;6.036;2023-11-21T17:52:18;6.07;;;2.67;;
44762;SDS011;30483;49.576;6.036;2023-11-21T17:54:45;5.82;;;2.78;;
44762;SDS011;30483;49.576;6.036;2023-11-21T17:57:11;7.05;;;2.53;;
44762;SDS011;30483;49.576;6.036;2023-11-21T17:59:38;5.85;;;2.70;;
44762;SDS011;30483;49.576;6.036;2023-11-21T18:02:10;6.18;;;2.38;;
44762;SDS011;30483;49.576;6.036;2023-11-21T18:04:37;4.55;;;2.25;;
44762;SDS011;30483;49.576;6.036;2023-11-21T18:07:03;4.45;;;2.28;;
44762;SDS011;30483;49.576;6.036;2023-11-21T18:09:30;5.53;;;2.50;;
44762;SDS011;30483;49.576;6.036;2023-11-21T18:11:56;5.18;;;2.72;;
44762;SDS011;30483;49.576;6.036;2023-11-21T18:14:22;6.20;;;2.58;;
44762;SDS011;30483;49.576;6.036;2023-11-21T18:16:49;5.32;;;2.95;;
44762;SDS011;30483;49.576;6.036;2023-11-21T18:19:15;3.17;;;2.20;;
44762;SDS011;30483;49.576;6.036;2023-11-21T18:21:41;4.55;;;2.42;;
44762;SDS011;30483;49.576;6.036;2023-11-21T18:24:09;9.75;;;2.67;;
44762;SDS011;30483;49.576;6.036;2023-11-21T18:26:35;4.55;;;2.33;;
44762;SDS011;30483;49.576;6.036;2023-11-21T18:29:01;5.43;;;2.55;;
44762;SDS011;30483;49.576;6.036;2023-11-21T18:31:27;4.72;;;2.67;;
44762;SDS011;30483;49.576;6.036;2023-11-21T18:33:54;5.93;;;2.50;;
44762;SDS011;30483;49.576;6.036;2023-11-21T18:36:20;4.90;;;2.25;;
44762;SDS011;30483;49.576;6.036;2023-11-21T18:38:46;4.43;;;2.58;;
44762;SDS011;30483;49.576;6.036;2023-11-21T18:41:22;3.85;;;2.30;;
44762;SDS011;30483;49.576;6.036;2023-11-21T18:43:48;5.20;;;2.47;;
44762;SDS011;30483;49.576;6.036;2023-11-21T18:46:14;4.80;;;2.42;;
44762;SDS011;30483;49.576;6.036;2023-11-21T18:48:40;6.57;;;2.80;;
44762;SDS011;30483;49.576;6.036;2023-11-21T18:51:09;6.38;;;2.42;;
44762;SDS011;30483;49.576;6.036;2023-11-21T18:53:35;6.18;;;2.30;;
44762;SDS011;30483;49.576;6.036;2023-11-21T18:56:04;5.07;;;2.33;;
44762;SDS011;30483;49.576;6.036;2023-11-21T18:58:33;4.35;;;2.42;;
44762;SDS011;30483;49.576;6.036;2023-11-21T19:00:59;5.38;;;2.40;;
44762;SDS011;30483;49.576;6.036;2023-11-21T19:03:25;4.25;;;2.30;;
44762;SDS011;30483;49.576;6.036;2023-11-21T19:05:51;3.92;;;2.10;;
44762;SDS011;30483;49.576;6.036;2023-11-21T19:08:18;4.43;;;2.40;;